createdAt,value
2019-04-11T00:02:49.101Z,22.67
2019-04-11T00:05:39.172Z,22.93
2019-04-11T00:08:50.142Z,19.70
2019-04-11T00:11:41.774Z,24.83
2019-04-11T00:14:32.754Z,20.83
2019-04-11T00:20:33.678Z,22.70
2019-04-11T00:23:24.588Z,26.43
2019-04-11T00:26:14.362Z,21.13
2019-04-11T00:29:04.078Z,24.47
2019-04-11T00:31:54.884Z,21.37
2019-04-11T00:34:45.367Z,25.20
2019-04-11T00:37:53.906Z,21.87
2019-04-11T00:40:43.776Z,25.70
2019-04-11T00:43:39.108Z,20.37
2019-04-11T00:46:26.549Z,23.60
2019-04-11T00:49:16.996Z,21.23
2019-04-11T00:52:06.689Z,23.87
2019-04-11T00:54:49.169Z,24.47
2019-04-11T00:57:57.777Z,19.00
2019-04-11T01:00:47.424Z,23.97
2019-04-11T01:03:38.099Z,24.47
2019-04-11T01:06:28.738Z,20.07
2019-04-11T01:09:18.487Z,21.47
2019-04-11T01:12:08.271Z,25.00
2019-04-11T01:14:57.997Z,23.00
2019-04-11T01:17:47.764Z,29.53
2019-04-11T01:20:37.741Z,25.70
2019-04-11T01:23:29.197Z,28.60
2019-04-11T01:26:21.224Z,26.47
2019-04-11T01:29:11.894Z,25.73
2019-04-11T01:35:01.281Z,22.63
2019-04-11T01:37:52.284Z,27.33
2019-04-11T01:40:43.204Z,19.20
2019-04-11T01:43:33.195Z,20.10
2019-04-11T01:46:22.927Z,19.43
2019-04-11T01:52:07.207Z,15.87
2019-04-11T01:54:56.905Z,15.73
2019-04-11T01:57:46.598Z,19.27
2019-04-11T02:00:56.682Z,17.70
2019-04-11T02:04:05.911Z,18.43
2019-04-11T02:13:01.709Z,17.60
2019-04-11T02:15:55.779Z,16.93
2019-04-11T02:18:44.432Z,13.33
2019-04-11T02:21:54.888Z,13.80
2019-04-11T02:25:05.991Z,17.23
2019-04-11T02:34:23.402Z,11.23
2019-04-11T02:37:13.440Z,13.97
2019-04-11T02:43:34.185Z,15.90
2019-04-11T02:46:35.277Z,12.43
2019-04-11T02:49:10.279Z,10.57
2019-04-11T02:52:00.904Z,11.80
2019-04-11T02:54:52.660Z,11.57
2019-04-11T02:57:43.548Z,11.07
2019-04-11T03:00:35.476Z,10.97
2019-04-11T03:03:25.356Z,14.53
2019-04-11T03:06:17.542Z,13.73
2019-04-11T03:09:26.986Z,10.67
2019-04-11T03:12:16.805Z,12.83
2019-04-11T03:15:16.357Z,11.80
2019-04-11T03:21:22.146Z,14.40
2019-04-11T03:24:13.091Z,13.90
2019-04-11T03:33:57.865Z,14.13
2019-04-11T03:39:02.322Z,13.40
2019-04-11T03:45:20.447Z,15.27
2019-04-11T03:48:05.915Z,19.33
2019-04-11T03:50:42.462Z,18.37
2019-04-11T03:56:49.810Z,20.57
2019-04-11T03:59:40.703Z,20.33
2019-04-11T04:06:01.957Z,17.63
2019-04-11T04:08:53.649Z,16.07
2019-04-11T04:11:42.875Z,13.73
2019-04-11T04:15:31.282Z,16.67
2019-04-11T04:28:40.862Z,11.57
2019-04-11T04:31:32.890Z,11.67
2019-04-11T04:34:23.864Z,19.50
2019-04-11T04:37:16.169Z,13.97
2019-04-11T04:40:23.921Z,15.93
2019-04-11T04:46:13.798Z,15.03
2019-04-11T04:49:48.103Z,15.33
2019-04-11T04:53:16.035Z,18.07
2019-04-11T04:56:35.477Z,15.70
2019-04-11T04:59:49.021Z,16.87
2019-04-11T05:03:22.254Z,12.93
2019-04-11T05:06:07.634Z,14.20
2019-04-11T05:08:58.163Z,13.87
2019-04-11T05:12:09.936Z,11.40
2019-04-11T05:15:01.539Z,12.10
2019-04-11T05:17:53.359Z,10.13
2019-04-11T05:20:44.846Z,10.97
2019-04-11T05:23:16.997Z,11.33
2019-04-11T05:25:47.612Z,14.83
2019-04-11T05:28:37.471Z,12.77
2019-04-11T05:31:30.786Z,9.80
2019-04-11T05:34:20.528Z,9.70
2019-04-11T05:37:11.094Z,11.43
2019-04-11T05:40:02.977Z,14.27
2019-04-11T05:42:54.131Z,15.57
2019-04-11T05:45:45.767Z,11.17
2019-04-11T05:48:59.344Z,10.83
2019-04-11T05:55:10.596Z,13.87
2019-04-11T05:58:00.825Z,9.30
2019-04-11T06:01:12.957Z,14.17
2019-04-11T06:03:57.370Z,9.47
2019-04-11T06:07:08.523Z,9.67
2019-04-11T06:10:08.520Z,9.13
2019-04-11T06:12:55.010Z,10.03
2019-04-11T06:15:47.717Z,9.20
2019-04-11T06:18:57.605Z,10.63
2019-04-11T06:25:19.294Z,11.47
2019-04-11T06:28:14.008Z,7.83
2019-04-11T06:31:24.544Z,10.07
2019-04-11T06:34:13.996Z,13.23
2019-04-11T06:37:22.548Z,12.90
2019-04-11T06:46:57.733Z,7.60
2019-04-11T06:53:14.991Z,9.93
2019-04-11T06:56:25.041Z,9.73
2019-04-11T06:59:12.336Z,11.67
2019-04-11T07:02:11.559Z,8.47
2019-04-11T07:08:32.459Z,9.13
2019-04-11T07:11:25.601Z,8.83
2019-04-11T07:14:23.118Z,10.17
2019-04-11T07:17:31.809Z,11.80
2019-04-11T07:20:41.420Z,8.43
2019-04-11T07:23:51.343Z,11.77
2019-04-11T07:26:45.836Z,10.33
2019-04-11T07:29:54.483Z,10.10
2019-04-11T07:32:45.092Z,9.03
2019-04-11T07:35:55.151Z,9.00
2019-04-11T07:38:52.270Z,8.23
2019-04-11T07:42:01.178Z,10.03
2019-04-11T07:44:55.994Z,9.70
2019-04-11T07:47:51.146Z,11.63
2019-04-11T07:50:42.194Z,12.43
2019-04-11T07:53:33.688Z,7.57
2019-04-11T07:56:31.370Z,6.03
2019-04-11T07:59:39.924Z,6.93
2019-04-11T08:02:48.583Z,8.93
2019-04-11T08:05:57.338Z,7.93
2019-04-11T08:09:05.846Z,7.47
2019-04-11T08:15:15.464Z,8.80
2019-04-11T08:18:12.499Z,5.90
2019-04-11T08:21:21.870Z,8.80
2019-04-11T08:24:16.901Z,9.73
2019-04-11T08:27:25.459Z,4.50
2019-04-11T08:30:35.004Z,3.83
2019-04-11T08:33:26.733Z,3.40
2019-04-11T08:36:35.905Z,3.57
2019-04-11T08:39:33.242Z,5.40
2019-04-11T08:42:43.396Z,7.03
2019-04-11T08:45:33.901Z,5.17
2019-04-11T08:48:24.641Z,4.17
2019-04-11T08:51:16.881Z,4.40
2019-04-11T08:54:25.707Z,4.83
2019-04-11T08:57:28.595Z,4.17
2019-04-11T09:04:02.128Z,2.93
2019-04-11T09:06:45.099Z,4.50
2019-04-11T09:09:54.014Z,3.30
2019-04-11T09:12:51.402Z,4.37
2019-04-11T09:15:41.235Z,3.63
2019-04-11T09:18:32.899Z,4.70
2019-04-11T09:21:30.517Z,3.47
2019-04-11T09:24:39.271Z,4.33
2019-04-11T09:27:48.904Z,2.57
2019-04-11T09:30:58.180Z,2.87
2019-04-11T09:34:06.739Z,2.47
2019-04-11T09:40:15.369Z,3.50
2019-04-11T09:43:26.159Z,2.97
2019-04-11T09:46:36.362Z,1.70
2019-04-11T09:52:45.313Z,2.03
2019-04-11T09:55:45.757Z,2.73
2019-04-11T09:58:35.757Z,1.40
2019-04-11T10:01:46.405Z,4.20
2019-04-11T10:04:36.587Z,1.97
2019-04-11T10:07:46.079Z,2.50
2019-04-11T10:10:55.414Z,2.83
2019-04-11T10:14:05.185Z,1.60
2019-04-11T10:17:15.436Z,1.70
2019-04-11T10:20:08.669Z,1.87
2019-04-11T10:23:18.801Z,1.17
2019-04-11T10:26:09.711Z,1.70
2019-04-11T10:29:19.459Z,1.30
2019-04-11T10:32:09.213Z,1.30
2019-04-11T10:35:19.890Z,2.90
2019-04-11T10:38:11.920Z,1.50
2019-04-11T10:41:21.049Z,1.40
2019-04-11T10:44:11.741Z,2.73
2019-04-11T10:47:08.095Z,1.37
2019-04-11T10:50:17.419Z,2.33
2019-04-11T10:53:08.859Z,2.43
2019-04-11T10:56:18.130Z,3.77
2019-04-11T10:59:09.086Z,1.60
2019-04-11T11:02:37.686Z,1.70
2019-04-11T11:05:28.391Z,2.20
2019-04-11T11:11:58.869Z,2.00
2019-04-11T11:15:09.486Z,1.83
2019-04-11T11:18:53.751Z,3.33
2019-04-11T11:21:14.404Z,2.03
2019-04-11T11:24:23.934Z,2.57
2019-04-11T11:27:14.466Z,1.40
2019-04-11T11:30:23.216Z,1.57
2019-04-11T11:33:13.930Z,2.23
2019-04-11T11:36:23.560Z,2.50
2019-04-11T11:39:33.355Z,1.90
2019-04-11T11:42:24.691Z,1.60
2019-04-11T11:44:59.709Z,5.30
2019-04-11T11:48:13.666Z,2.53
2019-04-11T11:51:33.268Z,2.10
2019-04-11T11:54:43.950Z,4.97
2019-04-11T11:57:53.207Z,1.87
2019-04-11T12:00:45.725Z,2.97
2019-04-11T12:03:55.410Z,2.30
2019-04-11T12:06:44.850Z,1.60
2019-04-11T12:09:53.431Z,1.70
2019-04-11T12:13:05.887Z,1.43
2019-04-11T12:16:16.028Z,4.20
2019-04-11T12:19:23.185Z,1.53
2019-04-11T12:22:13.063Z,6.57
2019-04-11T12:25:41.194Z,2.47
2019-04-11T12:28:49.995Z,1.50
2019-04-11T12:31:41.849Z,3.30
2019-04-11T12:34:51.405Z,2.40
2019-04-11T12:37:55.965Z,2.47
2019-04-11T12:41:05.954Z,5.33
2019-04-11T12:44:15.394Z,2.33
2019-04-11T12:47:23.999Z,2.10
2019-04-11T12:53:44.157Z,1.70
2019-04-11T12:56:52.764Z,4.17
2019-04-11T12:59:42.548Z,2.07
2019-04-11T13:02:51.294Z,2.37
2019-04-11T13:05:41.524Z,2.97
2019-04-11T13:08:50.413Z,3.03
2019-04-11T13:11:41.467Z,2.37
2019-04-11T13:14:50.142Z,2.23
2019-04-11T13:17:42.631Z,3.90
2019-04-11T13:24:18.956Z,3.17
2019-04-11T13:27:27.509Z,5.57
2019-04-11T13:30:36.060Z,4.13
2019-04-11T13:33:27.665Z,2.97
2019-04-11T13:36:27.832Z,3.23
2019-04-11T13:39:17.523Z,2.20
2019-04-11T13:42:26.677Z,2.80
2019-04-11T13:45:16.532Z,2.60
2019-04-11T13:48:25.337Z,3.23
2019-04-11T13:51:23.105Z,2.50
2019-04-11T13:54:32.021Z,2.03
2019-04-11T13:57:40.721Z,2.87
2019-04-11T14:00:49.312Z,2.77
2019-04-11T14:03:59.247Z,1.50
2019-04-11T14:07:13.323Z,2.93
2019-04-11T14:10:03.097Z,3.03
2019-04-11T14:12:55.520Z,3.27
2019-04-11T14:16:04.374Z,2.20
2019-04-11T14:19:13.089Z,1.93
2019-04-11T14:25:51.515Z,2.80
2019-04-11T14:28:44.600Z,1.87
2019-04-11T14:31:46.417Z,1.83
2019-04-11T14:34:35.874Z,3.37
2019-04-11T14:37:44.579Z,2.50
2019-04-11T14:41:01.514Z,1.77
2019-04-11T14:44:03.403Z,4.23
2019-04-11T14:47:12.293Z,2.00
2019-04-11T14:50:40.394Z,2.33
2019-04-11T14:53:32.176Z,2.17
2019-04-11T14:56:22.908Z,4.57
2019-04-11T14:59:32.940Z,4.13
2019-04-11T15:02:41.531Z,2.37
2019-04-11T15:05:50.135Z,3.23
2019-04-11T15:08:58.903Z,2.67
2019-04-11T15:11:55.346Z,3.50
2019-04-11T15:15:04.386Z,2.63
2019-04-11T15:17:59.312Z,2.10
2019-04-11T15:21:08.015Z,3.80
2019-04-11T15:23:58.000Z,7.40
2019-04-11T15:27:08.652Z,3.77
2019-04-11T15:29:51.332Z,4.47
2019-04-11T15:32:41.152Z,3.40
2019-04-11T15:35:31.544Z,5.00
2019-04-11T15:38:40.122Z,7.37
2019-04-11T15:41:30.751Z,5.00
2019-04-11T15:44:39.403Z,2.87
2019-04-11T15:48:12.088Z,4.23
2019-04-11T15:51:20.905Z,4.90
2019-04-11T15:54:18.635Z,3.03
2019-04-11T15:57:28.009Z,2.60
2019-04-11T16:00:36.763Z,3.90
2019-04-11T16:03:27.087Z,2.90
2019-04-11T16:06:38.884Z,3.70
2019-04-11T16:09:27.184Z,6.27
2019-04-11T16:12:25.376Z,1.97
2019-04-11T16:15:16.057Z,2.47
2019-04-11T16:18:24.736Z,2.90
2019-04-11T16:21:24.083Z,4.63
2019-04-11T16:24:27.625Z,3.23
2019-04-11T16:27:37.295Z,4.43
2019-04-11T16:30:27.721Z,3.00
2019-04-11T16:33:36.300Z,4.03
2019-04-11T16:36:44.851Z,3.30
2019-04-11T16:39:55.035Z,4.10
2019-04-11T16:42:47.495Z,4.57
2019-04-11T16:45:56.036Z,2.77
2019-04-11T16:48:45.786Z,3.37
2019-04-11T16:51:35.464Z,2.87
2019-04-11T16:54:25.192Z,4.10
2019-04-11T16:57:34.254Z,3.43
2019-04-11T17:00:24.005Z,3.80
2019-04-11T17:03:14.169Z,3.67
2019-04-11T17:12:07.331Z,2.97
2019-04-11T17:14:38.035Z,3.20
2019-04-11T17:17:30.614Z,3.03
2019-04-11T17:20:19.736Z,5.30
2019-04-11T17:23:02.277Z,4.33
2019-04-11T17:25:52.877Z,4.63
2019-04-11T17:28:43.573Z,7.20
2019-04-11T17:31:33.314Z,5.37
2019-04-11T17:34:41.832Z,7.37
2019-04-11T17:37:33.207Z,6.30
2019-04-11T17:40:23.008Z,7.03
2019-04-11T17:43:13.872Z,7.70
2019-04-11T17:46:04.134Z,4.23
2019-04-11T17:52:12.340Z,3.93
2019-04-11T17:55:02.613Z,4.73
2019-04-11T17:57:57.254Z,4.77
2019-04-11T18:03:59.007Z,6.00
2019-04-11T18:06:48.692Z,4.43
2019-04-11T18:09:38.731Z,4.37
2019-04-11T18:12:28.458Z,4.23
2019-04-11T18:15:18.194Z,4.33
2019-04-11T18:18:03.083Z,5.83
2019-04-11T18:20:52.407Z,3.63
2019-04-11T18:23:42.207Z,4.03
2019-04-11T18:26:52.038Z,5.07
2019-04-11T18:29:44.891Z,3.53
2019-04-11T18:32:34.945Z,4.30
2019-04-11T18:35:06.007Z,4.90
2019-04-11T18:37:55.710Z,3.03
2019-04-11T18:40:45.442Z,3.87
2019-04-11T18:46:50.106Z,4.83
2019-04-11T18:49:39.942Z,3.50
2019-04-11T18:52:31.102Z,4.10
2019-04-11T18:55:20.927Z,5.77
2019-04-11T18:58:10.663Z,5.90
2019-04-11T19:01:00.353Z,6.67
2019-04-11T19:03:50.131Z,7.43
2019-04-11T19:06:47.162Z,6.40
2019-04-11T19:09:37.016Z,5.83
2019-04-11T19:12:26.796Z,6.10
2019-04-11T19:15:09.915Z,6.87
2019-04-11T19:18:06.644Z,6.33
2019-04-11T19:20:51.999Z,5.03
2019-04-11T19:23:42.578Z,4.63
2019-04-11T19:26:51.202Z,6.47
2019-04-11T19:29:40.955Z,7.03
2019-04-11T19:32:31.713Z,6.53
2019-04-11T19:35:21.381Z,8.17
2019-04-11T19:41:20.484Z,5.17
2019-04-11T19:47:25.696Z,6.47
2019-04-11T19:50:34.784Z,4.90
2019-04-11T19:53:24.464Z,5.10
2019-04-11T19:59:26.364Z,6.03
2019-04-11T20:02:16.158Z,5.43
2019-04-11T20:05:06.302Z,5.00
2019-04-11T20:07:56.001Z,5.33
2019-04-11T20:10:45.787Z,5.40
2019-04-11T20:13:35.654Z,4.57
2019-04-11T20:16:25.431Z,7.80
2019-04-11T20:20:01.298Z,5.27
2019-04-11T20:26:20.105Z,7.53
2019-04-11T20:29:09.345Z,6.77
2019-04-11T20:32:05.230Z,6.60
2019-04-11T20:39:20.949Z,6.10
2019-04-11T20:41:59.994Z,6.30
2019-04-11T20:44:50.674Z,6.77
2019-04-11T20:47:40.495Z,6.13
2019-04-11T20:50:49.400Z,8.07
2019-04-11T20:53:39.810Z,5.93
2019-04-11T20:56:30.285Z,8.80
2019-04-11T20:59:20.467Z,10.83
2019-04-11T21:02:10.298Z,5.67
2019-04-11T21:05:02.776Z,6.90
2019-04-11T21:07:33.647Z,6.13
2019-04-11T21:10:16.025Z,6.73
2019-04-11T21:13:07.151Z,7.37
2019-04-11T21:15:58.116Z,7.47
2019-04-11T21:18:48.999Z,10.60
2019-04-11T21:21:39.164Z,5.97
2019-04-11T21:24:30.938Z,6.97
2019-04-11T21:27:20.412Z,6.47
2019-04-11T21:29:51.026Z,9.83
2019-04-11T21:32:40.833Z,8.00
2019-04-11T21:35:33.521Z,7.90
2019-04-11T21:38:22.603Z,6.30
2019-04-11T21:44:21.071Z,7.67
2019-04-11T21:47:10.792Z,7.23
2019-04-11T21:50:00.505Z,7.33
2019-04-11T21:52:50.273Z,11.37
2019-04-11T21:58:54.149Z,8.80
2019-04-11T22:02:24.296Z,6.67
2019-04-11T22:05:15.351Z,6.87
2019-04-11T22:07:57.908Z,9.47
2019-04-11T22:10:47.645Z,7.07
2019-04-11T22:13:40.447Z,9.07
2019-04-11T22:16:30.370Z,9.03
2019-04-11T22:19:20.472Z,10.57
2019-04-11T22:22:10.175Z,9.97
2019-04-11T22:24:59.869Z,8.43
2019-04-11T22:27:30.483Z,8.23
2019-04-11T22:30:01.122Z,12.23
2019-04-11T22:32:32.425Z,8.63
2019-04-11T22:35:04.477Z,9.23
2019-04-11T22:37:35.326Z,12.80
2019-04-11T22:40:25.096Z,10.70
2019-04-11T22:43:24.058Z,9.07
2019-04-11T22:46:08.072Z,11.73
2019-04-11T22:48:57.658Z,10.87
2019-04-11T22:51:28.310Z,7.97
2019-04-11T22:54:17.971Z,9.17
2019-04-11T22:57:11.879Z,9.37
2019-04-11T22:59:59.068Z,8.40
2019-04-11T23:05:47.887Z,9.93
2019-04-11T23:11:46.277Z,13.07
2019-04-11T23:14:54.988Z,6.63
2019-04-11T23:17:44.829Z,10.13
2019-04-11T23:20:34.712Z,9.07
2019-04-11T23:23:24.408Z,10.83
2019-04-11T23:26:14.130Z,8.20
2019-04-11T23:29:03.838Z,8.17
2019-04-11T23:32:12.428Z,8.07
2019-04-11T23:35:02.102Z,8.90
2019-04-11T23:38:10.855Z,8.73
2019-04-11T23:41:00.616Z,9.57
2019-04-11T23:43:50.526Z,11.70
2019-04-11T23:46:59.100Z,11.33
2019-04-11T23:49:48.867Z,12.53
2019-04-11T23:52:38.868Z,8.03
2019-04-11T23:55:30.721Z,8.83
2019-04-11T23:58:20.628Z,11.93
